createdAt,value
2019-03-24T00:02:27.473Z,23.38
2019-03-24T00:07:31.847Z,22.13
2019-03-24T00:12:35.782Z,20.75
2019-03-24T00:17:39.093Z,21.65
2019-03-24T00:22:43.233Z,19.25
2019-03-24T00:27:46.545Z,18.55
2019-03-24T00:32:49.891Z,16.17
2019-03-24T00:37:54.134Z,16.00
2019-03-24T00:42:57.766Z,16.00
2019-03-24T00:48:01.270Z,14.40
2019-03-24T00:53:04.829Z,15.13
2019-03-24T00:58:08.355Z,13.13
2019-03-24T01:03:12.465Z,10.80
2019-03-24T01:08:15.807Z,10.20
2019-03-24T01:13:19.208Z,10.32
2019-03-24T01:18:22.515Z,8.40
2019-03-24T01:23:26.637Z,8.28
2019-03-24T01:28:31.011Z,9.35
2019-03-24T01:33:34.848Z,10.60
2019-03-24T01:38:38.192Z,12.15
2019-03-24T01:43:41.542Z,11.57
2019-03-24T01:48:45.484Z,10.50
2019-03-24T01:53:48.933Z,8.15
2019-03-24T01:58:53.612Z,8.90
2019-03-24T02:03:57.727Z,9.28
2019-03-24T02:09:01.310Z,8.70
2019-03-24T02:14:04.841Z,8.60
2019-03-24T02:19:08.161Z,8.48
2019-03-24T02:24:11.524Z,9.45
2019-03-24T02:29:14.861Z,10.38
2019-03-24T02:34:18.226Z,9.18
2019-03-24T02:39:22.842Z,9.80
2019-03-24T02:44:26.245Z,10.45
2019-03-24T02:49:29.772Z,11.12
2019-03-24T02:54:33.777Z,10.70
2019-03-24T02:59:37.631Z,11.68
2019-03-24T03:04:41.012Z,12.73
2019-03-24T03:09:44.766Z,13.05
2019-03-24T03:14:49.574Z,14.60
2019-03-24T03:19:54.053Z,15.30
2019-03-24T03:24:57.343Z,15.68
2019-03-24T03:30:00.875Z,17.60
2019-03-24T03:35:06.383Z,18.30
2019-03-24T03:40:10.506Z,19.17
2019-03-24T03:45:18.782Z,18.95
2019-03-24T03:50:22.446Z,18.90
2019-03-24T03:55:25.987Z,19.00
2019-03-24T04:00:35.842Z,19.42
2019-03-24T04:05:39.208Z,19.05
2019-03-24T04:10:44.554Z,19.37
2019-03-24T04:15:48.195Z,19.30
2019-03-24T04:20:51.686Z,19.77
2019-03-24T04:25:55.224Z,18.07
2019-03-24T04:30:59.627Z,19.90
2019-03-24T04:36:03.132Z,18.50
2019-03-24T04:41:06.509Z,18.57
2019-03-24T04:46:11.037Z,18.07
2019-03-24T04:51:15.368Z,17.90
2019-03-24T04:56:18.724Z,16.95
2019-03-24T05:01:22.926Z,17.15
2019-03-24T05:06:28.440Z,17.12
2019-03-24T05:11:31.833Z,16.40
2019-03-24T05:16:35.932Z,16.70
2019-03-24T05:21:39.352Z,14.78
2019-03-24T05:26:42.701Z,15.10
2019-03-24T05:31:46.008Z,14.63
2019-03-24T05:36:50.912Z,16.62
2019-03-24T05:41:54.311Z,15.80
2019-03-24T05:46:57.739Z,16.17
2019-03-24T05:52:01.406Z,16.52
2019-03-24T05:57:04.714Z,17.52
2019-03-24T06:02:08.945Z,17.12
2019-03-24T06:07:12.253Z,17.55
2019-03-24T06:12:15.582Z,15.88
2019-03-24T06:17:19.715Z,15.78
2019-03-24T06:22:23.219Z,14.53
2019-03-24T06:27:26.850Z,13.55
2019-03-24T06:32:31.830Z,12.88
2019-03-24T06:37:35.528Z,14.23
2019-03-24T06:42:38.908Z,14.23
2019-03-24T06:47:43.901Z,13.05
2019-03-24T06:52:48.363Z,13.83
2019-03-24T06:57:51.718Z,15.25
2019-03-24T07:02:55.046Z,13.58
2019-03-24T07:07:58.783Z,13.72
2019-03-24T07:13:03.084Z,15.13
2019-03-24T07:18:08.741Z,13.85
2019-03-24T07:23:11.735Z,14.05
2019-03-24T07:28:15.053Z,15.58
2019-03-24T07:33:18.444Z,15.05
2019-03-24T07:38:22.033Z,14.20
2019-03-24T07:43:26.055Z,13.62
2019-03-24T07:48:29.729Z,13.50
2019-03-24T07:53:33.865Z,12.50
2019-03-24T07:58:37.372Z,11.00
2019-03-24T08:03:40.705Z,12.78
2019-03-24T08:08:59.753Z,11.65
2019-03-24T08:14:11.009Z,11.90
2019-03-24T08:24:54.574Z,10.63
2019-03-24T08:30:02.571Z,10.28
2019-03-24T08:35:07.425Z,9.80
2019-03-24T08:40:12.515Z,10.55
2019-03-24T08:45:19.180Z,9.83
2019-03-24T08:50:24.026Z,10.98
2019-03-24T08:55:27.690Z,10.15
2019-03-24T09:00:34.494Z,9.85
2019-03-24T09:28:11.965Z,8.08
2019-03-24T09:33:15.354Z,8.18
2019-03-24T09:38:21.214Z,7.58
2019-03-24T09:43:24.667Z,7.58
2019-03-24T09:48:28.648Z,9.78
2019-03-24T09:53:33.829Z,8.90
2019-03-24T09:58:37.158Z,6.95
2019-03-24T10:03:53.116Z,7.75
2019-03-24T10:08:56.509Z,8.03
2019-03-24T10:14:11.197Z,7.05
2019-03-24T10:19:18.089Z,7.65
2019-03-24T10:24:27.982Z,7.08
2019-03-24T10:29:35.872Z,4.78
2019-03-24T10:34:43.990Z,6.58
2019-03-24T10:39:47.942Z,4.78
2019-03-24T10:44:52.258Z,5.08
2019-03-24T10:49:56.450Z,6.17
2019-03-24T10:55:00.312Z,5.97
2019-03-24T11:00:06.885Z,5.67
2019-03-24T11:05:10.472Z,5.80
2019-03-24T11:10:13.759Z,6.55
2019-03-24T11:15:18.594Z,5.75
2019-03-24T11:20:25.604Z,5.92
2019-03-24T11:25:33.511Z,6.10
2019-03-24T11:30:44.886Z,6.40
2019-03-24T11:35:49.633Z,5.50
2019-03-24T11:40:53.125Z,6.17
2019-03-24T11:45:56.531Z,6.22
2019-03-24T11:51:00.675Z,5.50
2019-03-24T11:56:04.106Z,5.03
2019-03-24T12:01:13.622Z,6.15
2019-03-24T12:06:17.082Z,5.55
2019-03-24T12:11:21.037Z,5.42
2019-03-24T12:16:25.815Z,5.30
2019-03-24T12:21:29.241Z,5.20
2019-03-24T12:26:33.251Z,5.50
2019-03-24T12:31:36.769Z,5.92
2019-03-24T12:36:42.544Z,5.37
2019-03-24T12:41:49.502Z,7.10
2019-03-24T12:46:52.952Z,5.30
2019-03-24T12:51:56.552Z,5.20
2019-03-24T12:57:01.598Z,5.33
2019-03-24T13:02:06.707Z,5.03
2019-03-24T13:07:12.769Z,4.95
2019-03-24T13:12:16.189Z,5.47
2019-03-24T13:17:19.598Z,5.25
2019-03-24T13:22:22.946Z,5.15
2019-03-24T13:27:26.473Z,5.55
2019-03-24T13:32:30.053Z,5.08
2019-03-24T13:37:33.473Z,4.35
2019-03-24T13:42:37.279Z,5.17
2019-03-24T13:47:43.419Z,4.97
2019-03-24T13:52:48.370Z,4.80
2019-03-24T13:57:52.045Z,4.40
2019-03-24T14:02:56.282Z,4.45
2019-03-24T14:08:02.086Z,3.87
2019-03-24T14:13:06.212Z,3.40
2019-03-24T14:18:09.528Z,3.00
2019-03-24T14:23:14.528Z,3.70
2019-03-24T14:28:17.860Z,4.83
2019-03-24T14:33:21.233Z,3.33
2019-03-24T14:38:24.607Z,3.67
2019-03-24T14:43:28.072Z,3.22
2019-03-24T14:48:31.389Z,3.40
2019-03-24T14:53:40.058Z,3.33
2019-03-24T14:58:45.049Z,4.60
2019-03-24T15:03:48.432Z,4.87
2019-03-24T15:08:53.251Z,4.35
2019-03-24T15:13:56.657Z,4.58
2019-03-24T15:19:03.097Z,4.65
2019-03-24T15:24:06.462Z,4.58
2019-03-24T15:29:11.751Z,3.70
2019-03-24T15:34:18.274Z,3.55
2019-03-24T15:39:23.894Z,3.65
2019-03-24T15:44:28.950Z,4.37
2019-03-24T15:49:32.750Z,4.00
2019-03-24T15:54:36.163Z,3.92
2019-03-24T15:59:44.718Z,4.17
2019-03-24T16:04:55.276Z,4.10
2019-03-24T16:10:01.168Z,3.62
2019-03-24T16:15:07.606Z,3.47
2019-03-24T16:20:12.402Z,4.33
2019-03-24T16:25:17.333Z,4.25
2019-03-24T16:30:21.007Z,7.83
2019-03-24T16:35:28.684Z,4.45
2019-03-24T16:40:32.444Z,4.33
2019-03-24T16:45:35.868Z,4.47
2019-03-24T16:50:44.071Z,4.62
2019-03-24T16:55:48.417Z,6.33
2019-03-24T17:00:51.931Z,5.05
2019-03-24T17:05:55.336Z,4.80
2019-03-24T17:11:00.078Z,4.20
2019-03-24T17:16:03.896Z,5.65
2019-03-24T17:21:07.339Z,4.87
2019-03-24T17:26:10.726Z,4.55
2019-03-24T17:31:14.258Z,4.92
2019-03-24T17:36:17.869Z,5.70
2019-03-24T17:41:23.415Z,4.87
2019-03-24T17:46:26.902Z,5.67
2019-03-24T17:51:32.289Z,5.95
2019-03-24T17:56:35.694Z,5.37
2019-03-24T18:01:39.233Z,4.40
2019-03-24T18:06:42.647Z,4.58
2019-03-24T18:11:46.880Z,4.55
2019-03-24T18:16:51.357Z,4.25
2019-03-24T18:22:11.291Z,4.47
2019-03-24T18:27:11.336Z,6.03
2019-03-24T18:32:16.104Z,4.92
2019-03-24T18:37:20.085Z,4.50
2019-03-24T18:42:31.241Z,5.58
2019-03-24T18:53:00.496Z,5.25
2019-03-24T18:58:04.710Z,5.12
2019-03-24T19:03:08.342Z,5.50
2019-03-24T19:13:42.787Z,5.05
2019-03-24T19:18:57.235Z,5.58
2019-03-24T19:24:15.449Z,6.30
2019-03-24T19:29:25.516Z,8.18
2019-03-24T19:34:25.404Z,9.80
2019-03-24T19:39:37.665Z,6.72
2019-03-24T19:44:42.326Z,5.97
2019-03-24T19:49:47.682Z,6.20
2019-03-24T20:00:28.591Z,6.03
2019-03-24T20:11:02.933Z,5.15
2019-03-24T20:16:16.960Z,5.12
2019-03-24T20:27:09.691Z,4.78
2019-03-24T20:43:50.848Z,5.85
2019-03-24T20:54:33.241Z,5.42
2019-03-24T20:59:40.067Z,5.42
2019-03-24T21:04:45.749Z,5.53
2019-03-24T21:10:07.791Z,5.90
2019-03-24T21:15:15.466Z,5.95
2019-03-24T21:20:26.273Z,6.40
2019-03-24T21:25:36.033Z,8.48
2019-03-24T21:57:57.493Z,40.95
2019-03-24T22:08:32.333Z,44.03
2019-03-24T22:19:26.095Z,41.85
2019-03-24T22:24:42.595Z,38.80
2019-03-24T22:29:57.046Z,40.83
2019-03-24T22:35:02.613Z,39.60
2019-03-24T22:56:38.014Z,38.33
2019-03-24T23:07:11.775Z,48.42
2019-03-24T23:12:27.811Z,52.27
2019-03-24T23:17:35.545Z,50.55
2019-03-24T23:22:49.220Z,43.38
2019-03-24T23:27:55.912Z,42.13
2019-03-24T23:44:15.094Z,40.05
2019-03-24T23:49:20.973Z,36.40
2019-03-24T23:54:29.299Z,35.43
2019-03-24T23:59:38.607Z,36.55
